Latest Weather Observations for Loxton

IDS60801

Issued at 4:31 pm CDT Sunday 4 December 2016 (issued every 30 minutes, with the page automatically refreshed every 10 minutes)

About weather observations | Map of weather stations | Latest weather observations for SA | Other Formats
Station Details ID: 024024 Name: LOXTON RESEARCH CENTRE Lat: -34.44 Lon: 140.60 Height: 30.1 m
Data from the previous 72 hours. | See also: Recent months at Loxton
Date/Time
CDT
Temp
°C
App
Temp
°C
Dew
Point
°C
Rel
Hum
%
Delta-T
°C
Wind Press
QNH
hPa
Press
MSL
hPa
Rain since
9am
mm
Dir  Spd
km/h
Gust
km/h
Spd
kts
Gust
kts
04/04:00pm 23.1 23.9 18.2 74 3.1 SSE 11 15 6 8 1006.9 1006.8 0.2
04/03:30pm 23.2 24.2 17.8 71 3.4 S 9 13 5 7 1007.7 1007.6 0.2
04/03:00pm 23.1 23.2 17.5 70 3.5 S 13 17 7 9 1007.6 1007.5 0.2
04/02:30pm 22.6 23.2 17.8 74 3.0 S 11 15 6 8 1007.7 1007.6 0.2
04/02:00pm 23.6 22.0 16.0 62 4.6 SSW 19 26 10 14 1007.8 1007.7 0.0
04/01:30pm 26.5 23.8 13.0 43 7.9 SW 19 26 10 14 1008.6 1008.5 0.0
04/01:00pm 26.0 23.5 12.3 42 7.9 SW 17 24 9 13 1008.6 1008.5 0.0
04/12:30pm 26.4 24.1 11.8 40 8.4 SW 15 32 8 17 1008.4 1008.3 0.0
04/12:00pm 23.8 24.0 14.3 55 5.6 ENE 6 7 3 4 1008.9 1008.8 0.0
04/11:30am 23.9 25.0 13.4 51 6.1 CALM 0 0 0 0 1009.0 1008.9 0.0
04/11:00am 23.0 22.1 12.7 52 5.9 N 9 15 5 8 1009.3 1009.2 0.0
04/10:30am 23.2 22.3 12.5 51 6.1 NW 9 13 5 7 1008.9 1008.8 0.0
04/10:00am 22.8 21.2 11.4 48 6.4 WNW 11 17 6 9 1009.2 1009.1 0.0
04/09:30am 23.2 20.5 10.5 44 7.0 WNW 15 22 8 12 1009.8 1009.7 0.0
04/09:00am 23.0 21.1 12.9 53 5.8 NW 15 19 8 10 1009.3 1009.2 0.0
04/08:30am 21.5 21.1 12.9 58 4.9 N 7 11 4 6 1009.0 1008.9 0.0
04/08:00am 20.8 20.3 11.9 56 5.0 NNW 6 7 3 4 1008.7 1008.6 0.0
04/07:30am 19.6 20.2 11.9 61 4.3 CALM 0 0 0 0 1008.1 1008.0 0.0
04/07:00am 17.8 18.3 11.6 67 3.4 CALM 0 0 0 0 1008.4 1008.3 0.0
04/06:30am 16.8 17.0 10.6 67 3.3 CALM 0 0 0 0 1008.7 1008.6 0.0
04/06:00am 16.1 16.5 11.1 72 2.7 CALM 0 0 0 0 1008.4 1008.3 0.0
04/05:30am 16.6 16.1 9.3 62 3.8 W 2 7 1 4 1008.5 1008.4 0.0
04/05:00am 16.9 16.9 9.7 62 3.8 CALM 0 0 0 0 1008.1 1008.0 0.0
04/04:30am 17.1 17.3 10.6 65 3.5 CALM 0 0 0 0 1007.7 1007.6 0.0
04/04:00am 17.8 17.8 9.9 60 4.2 CALM 0 0 0 0 1008.1 1008.0 0.0
04/03:30am 18.7 17.2 8.3 50 5.4 S 6 9 3 5 1008.3 1008.2 0.0
04/03:00am 18.9 17.7 8.0 49 5.6 S 4 9 2 5 1008.3 1008.2 0.0
04/02:30am 18.7 17.8 9.2 54 5.0 SSW 4 11 2 6 1008.5 1008.4 0.0
04/02:00am 19.5 19.2 8.6 49 5.7 CALM 0 0 0 0 1008.7 1008.6 0.0
04/01:30am 21.3 19.0 7.6 41 7.1 S 9 13 5 7 1009.1 1009.0 0.0
04/01:00am 22.5 18.9 6.7 36 8.1 S 15 20 8 11 1009.3 1009.2 0.0
04/12:30am 23.3 20.0 6.6 34 8.6 S 13 19 7 10 1009.4 1009.3 0.0
04/12:00am 24.0 20.7 6.6 32 9.0 SSW 13 19 7 10 1009.8 1009.7 0.0
 
Date/Time
CDT
Temp
°C
App
Temp
°C
Dew
Point
°C
Rel
Hum
%
Delta-T
°C
Wind Press
QNH
hPa
Press
MSL
hPa
Rain since
9am
mm
Dir  Spd
km/h
Gust
km/h
Spd
kts
Gust
kts
03/11:30pm 25.0 22.2 6.8 31 9.5 SSW 11 15 6 8 1009.9 1009.8 0.0
03/11:00pm 26.7 23.9 7.1 28 10.4 SSW 11 15 6 8 1010.2 1010.1 0.0
03/10:30pm 24.9 24.1 11.7 43 7.5 SSW 7 13 4 7 1010.2 1010.1 0.0
03/10:00pm 26.8 24.2 9.4 33 9.6 S 13 15 7 8 1010.1 1010.0 0.0
03/09:30pm 25.4 26.5 14.5 51 6.5 SE 2 6 1 3 1010.0 1009.9 0.0
03/09:00pm 24.9 26.6 15.1 54 5.9 CALM 0 0 0 0 1010.0 1009.9 0.0
03/08:30pm 25.5 27.2 15.2 53 6.2 CALM 0 0 0 0 1009.8 1009.7 0.0
03/08:00pm 27.5 27.9 14.8 45 7.7 WSW 6 7 3 4 1009.6 1009.5 0.0
03/07:30pm 32.2 29.8 8.6 23 13.2 WSW 11 15 6 8 1009.4 1009.3 0.0
03/07:00pm 33.6 31.1 8.3 21 14.2 WNW 11 19 6 10 1009.4 1009.3 0.0
03/06:30pm 33.6 32.5 10.0 23 13.6 NNE 6 9 3 5 1009.1 1009.0 0.0
03/06:00pm 33.8 32.4 8.9 21 14.1 NNW 6 11 3 6 1009.1 1009.0 0.0
03/05:30pm 34.0 31.6 7.2 19 14.8 WNW 9 15 5 8 1009.2 1009.1 0.0
03/05:00pm 34.1 32.0 6.8 18 15.0 W 7 13 4 7 1009.4 1009.3 0.0
03/04:30pm 33.1 31.0 6.7 19 14.4 NNW 7 17 4 9 1009.7 1009.6 0.0
03/04:00pm 32.6 29.5 5.7 18 14.4 WSW 11 19 6 10 1010.0 1009.9 0.0
03/03:30pm 31.9 28.6 6.6 20 13.7 NNW 13 20 7 11 1010.3 1010.2 0.0
03/03:00pm 31.5 28.3 7.0 21 13.3 NW 13 22 7 12 1010.7 1010.6 0.0
03/02:30pm 31.0 28.1 6.7 21 13.1 NNW 11 19 6 10 1011.1 1011.0 0.0
03/02:00pm 30.1 27.2 6.3 22 12.7 NNW 11 17 6 9 1011.7 1011.6 0.0
03/01:30pm 29.7 26.4 6.4 23 12.4 NW 13 20 7 11 1012.1 1012.0 0.0
03/01:00pm 28.6 25.1 5.6 23 12.0 N 13 19 7 10 1012.5 1012.4 0.0
03/12:30pm 27.6 24.2 5.7 24 11.4 WNW 13 17 7 9 1012.8 1012.6 0.0
03/12:00pm 27.6 23.9 4.7 23 11.7 NNE 13 20 7 11 1013.1 1012.9 0.0
03/11:30am 25.5 22.3 7.0 30 9.7 N 13 20 7 11 1013.6 1013.4 0.0
03/11:00am 24.9 22.3 4.2 26 10.3 NE 7 15 4 8 1014.0 1013.9 0.0
03/10:30am 23.4 20.8 6.2 33 8.8 ENE 9 15 5 8 1014.1 1014.0 0.0
03/10:00am 22.0 19.4 6.2 36 8.0 ENE 9 11 5 6 1014.5 1014.4 0.0
03/09:30am 20.0 18.0 6.2 40 6.9 E 6 9 3 5 1014.9 1014.8 0.0
03/09:00am 18.0 14.9 5.7 44 6.0 ESE 11 15 6 8 1014.9 1014.8 0.0
03/08:30am 16.1 13.4 5.4 49 5.1 ESE 9 15 5 8 1014.9 1014.8 0.0
03/08:00am 14.4 11.1 4.7 52 4.5 SE 11 15 6 8 1014.9 1014.8 0.0
03/07:30am 12.6 9.2 4.2 56 3.8 SSE 11 15 6 8 1014.6 1014.5 0.0
03/07:00am 10.8 7.8 4.3 64 2.9 SSW 9 13 5 7 1014.6 1014.5 0.0
03/06:30am 9.7 7.1 4.3 69 2.4 SW 7 9 4 5 1014.4 1014.3 0.0
03/06:00am 9.4 6.0 4.2 70 2.3 SW 11 13 6 7 1014.0 1013.9 0.0
03/05:30am 9.8 6.5 4.4 69 2.4 SW 11 15 6 8 1013.8 1013.7 0.0
03/05:00am 10.5 7.2 4.5 66 2.7 SW 11 13 6 7 1013.4 1013.2 0.0
03/04:30am 11.1 7.8 4.4 63 3.0 WSW 11 13 6 7 1013.1 1012.9 0.0
03/04:00am 11.3 8.4 4.9 65 2.9 WSW 9 13 5 7 1012.9 1012.7 0.0
03/03:30am 11.7 8.9 5.2 64 3.0 SW 9 13 5 7 1012.9 1012.7 0.0
03/03:00am 12.2 9.0 5.3 62 3.2 SW 11 15 6 8 1013.1 1012.9 0.0
03/02:30am 12.7 10.0 5.4 61 3.4 SSW 9 15 5 8 1013.2 1013.0 0.0
03/02:00am 12.9 10.2 5.7 61 3.4 SSW 9 11 5 6 1013.4 1013.2 0.0
03/01:30am 13.8 11.0 5.3 56 4.0 SSW 9 13 5 7 1013.6 1013.4 0.0
03/01:00am 14.5 10.9 5.1 53 4.4 S 13 17 7 9 1013.5 1013.3 0.0
03/12:30am 15.4 11.4 4.8 49 5.0 S 15 22 8 12 1013.7 1013.5 0.0
03/12:00am 16.2 12.1 4.5 45 5.5 S 15 24 8 13 1014.0 1013.9 0.0
 
Date/Time
CDT
Temp
°C
App
Temp
°C
Dew
Point
°C
Rel
Hum
%
Delta-T
°C
Wind Press
QNH
hPa
Press
MSL
hPa
Rain since
9am
mm
Dir  Spd
km/h
Gust
km/h
Spd
kts
Gust
kts
02/11:30pm 17.0 12.7 3.4 40 6.3 S 15 22 8 12 1014.1 1014.0 0.0
02/11:00pm 18.0 13.4 1.8 33 7.3 S 15 22 8 12 1014.1 1014.0 0.0
02/10:30pm 18.9 14.3 1.4 31 7.9 S 15 24 8 13 1013.9 1013.8 0.0
02/10:00pm 19.8 14.9 2.3 31 8.1 S 17 24 9 13 1013.6 1013.4 0.0
02/09:30pm 21.1 16.0 2.9 30 8.6 S 19 26 10 14 1013.2 1013.0 0.0
02/09:00pm 21.7 18.0 4.6 32 8.4 SSW 13 17 7 9 1013.2 1013.0 0.0
02/08:30pm 22.8 19.2 4.9 31 8.9 SSW 13 17 7 9 1012.8 1012.6 0.0
02/08:00pm 23.8 20.8 6.0 31 9.1 S 11 15 6 8 1012.3 1012.2 0.0
02/07:30pm 25.7 22.5 6.8 30 9.9 SSW 13 17 7 9 1012.0 1011.9 0.0
02/07:00pm 26.6 22.9 6.3 27 10.6 S 15 26 8 14 1011.7 1011.6 0.0
02/06:30pm 26.8 23.8 7.8 30 10.2 SSW 13 20 7 11 1011.5 1011.4 0.0
02/06:00pm 26.8 23.6 8.4 31 10.0 SW 15 22 8 12 1011.2 1011.1 0.0
02/05:30pm 27.3 24.8 8.1 29 10.4 SSW 11 19 6 10 1011.0 1010.9 0.0
02/05:00pm 27.5 24.0 7.3 28 10.8 S 15 22 8 12 1011.1 1011.0 0.0
02/04:30pm 27.7 24.1 6.8 26 11.1 SSW 15 24 8 13 1011.2 1011.1 0.0
02/04:00pm 27.0 23.1 5.5 25 11.1 SW 15 26 8 14 1011.3 1011.2 0.0
02/03:30pm 27.4 23.1 5.3 24 11.4 SSW 17 28 9 15 1011.3 1011.2 0.0
02/03:00pm 26.7 23.2 5.3 25 11.0 S 13 22 7 12 1011.5 1011.4 0.0
02/02:30pm 26.4 22.9 5.4 26 10.8 SSW 13 24 7 13 1011.5 1011.4 0.0
02/02:00pm 26.7 22.6 4.6 24 11.2 SSW 15 26 8 14 1011.7 1011.6 0.0
02/01:30pm 25.7 21.8 5.3 27 10.4 SSE 15 26 8 14 1012.2 1012.1 0.0
02/01:00pm 25.2 21.7 5.4 28 10.1 S 13 20 7 11 1012.6 1012.5 0.0
02/12:30pm 24.1 20.6 5.6 30 9.4 SSW 13 24 7 13 1013.0 1012.8 0.0
02/12:00pm 23.6 20.3 6.2 32 8.9 S 13 20 7 11 1013.3 1013.1 0.0
02/11:30am 22.5 19.9 7.8 38 7.7 SSE 11 17 6 9 1013.5 1013.3 0.0
02/11:00am 21.4 17.6 7.5 40 7.2 SSW 17 26 9 14 1013.6 1013.4 0.0
02/10:30am 20.9 17.8 8.8 46 6.4 SSW 15 22 8 12 1013.5 1013.3 0.0
02/10:00am 20.0 16.5 8.8 48 5.9 S 17 26 9 14 1013.8 1013.7 0.0
02/09:30am 18.8 15.7 8.8 52 5.2 SSE 15 22 8 12 1013.9 1013.8 0.0
02/09:00am 17.7 14.6 8.8 56 4.6 S 15 22 8 12 1013.9 1013.8 0.0
02/08:30am 16.7 12.9 9.0 60 4.0 S 19 26 10 14 1013.8 1013.7 0.0
02/08:00am 16.1 13.2 9.6 65 3.4 S 15 22 8 12 1013.6 1013.4 0.0
02/07:30am 15.0 12.6 10.2 73 2.5 S 13 17 7 9 1013.0 1012.8 0.0
02/07:00am 14.1 12.2 10.5 79 1.9 SSW 11 17 6 9 1012.6 1012.5 0.0
02/06:30am 12.5 10.8 10.0 85 1.3 SW 9 13 5 7 1012.3 1012.2 0.0
02/06:00am 12.2 10.6 10.1 87 1.1 SW 9 11 5 6 1012.0 1011.9 0.0
02/05:30am 12.6 10.3 10.3 86 1.2 SW 13 17 7 9 1011.6 1011.5 0.0
02/05:00am 12.9 10.5 10.0 82 1.5 SSW 13 19 7 10 1010.7 1010.6 0.0
02/04:30am 13.1 10.6 9.8 80 1.7 SW 13 17 7 9 1010.4 1010.3 0.0
02/04:00am 13.8 12.1 9.7 76 2.1 SW 9 11 5 6 1010.3 1010.2 0.0
02/03:30am 14.0 12.6 9.7 75 2.2 SW 7 9 4 5 1010.0 1009.9 0.0
02/03:00am 14.4 13.1 10.0 75 2.3 SSW 7 9 4 5 1009.6 1009.5 0.0
02/02:30am 14.7 12.9 9.5 71 2.7 SSW 9 15 5 8 1009.1 1009.0 0.0
02/02:00am 15.1 12.9 9.3 68 3.0 S 11 19 6 10 1008.8 1008.7 0.0
02/01:30am 15.7 13.8 8.9 64 3.5 S 9 15 5 8 1009.1 1009.0 0.0
02/01:00am 16.4 13.6 8.4 59 4.1 S 13 17 7 9 1008.9 1008.8 0.0
02/12:30am 17.2 14.3 8.2 55 4.6 S 13 20 7 11 1009.1 1009.0 0.0
02/12:00am 17.8 14.8 7.5 51 5.2 S 13 20 7 11 1009.2 1009.1 0.0
 
Date/Time
CDT
Temp
°C
App
Temp
°C
Dew
Point
°C
Rel
Hum
%
Delta-T
°C
Wind Press
QNH
hPa
Press
MSL
hPa
Rain since
9am
mm
Dir  Spd
km/h
Gust
km/h
Spd
kts
Gust
kts
01/11:30pm 18.6 15.0 6.9 46 5.9 S 15 22 8 12 1009.2 1009.1 0.0
01/11:00pm 19.4 15.6 5.9 41 6.7 S 15 22 8 12 1008.9 1008.8 0.0
01/10:30pm 20.4 16.9 5.5 37 7.4 S 13 20 7 11 1008.8 1008.7 0.0
01/10:00pm 21.0 17.7 4.7 34 8.0 SSW 11 15 6 8 1008.9 1008.8 0.0
01/09:30pm 21.9 17.8 4.6 32 8.5 SSW 15 22 8 12 1008.7 1008.6 0.0
01/09:00pm 22.9 18.5 4.5 30 9.1 SSW 17 28 9 15 1008.3 1008.2 0.0
01/08:30pm 24.3 21.1 2.8 24 10.4 WSW 9 11 5 6 1007.8 1007.7 0.0
01/08:00pm 25.3 21.8 3.7 24 10.7 WSW 11 13 6 7 1007.6 1007.5 0.0
01/07:30pm 25.1 23.4 7.6 32 9.3 NNW 6 9 3 5 1006.8 1006.7 0.0
01/07:00pm 26.5 24.2 4.7 24 11.1 NNW 6 7 3 4 1006.5 1006.4 0.0
01/06:30pm 27.8 25.4 2.1 19 12.6 NW 4 11 2 6 1006.3 1006.2 0.0
01/06:00pm 27.6 24.2 2.0 19 12.5 WSW 9 13 5 7 1006.3 1006.2 0.0
01/05:30pm 27.3 23.5 1.7 19 12.4 WNW 11 17 6 9 1006.4 1006.3 0.0
01/05:00pm 27.2 23.3 1.1 18 12.5 WNW 11 15 6 8 1006.3 1006.2 0.0

Other Formats:

Comma delimited format used in spreadsheet applications
http://www.bom.gov.au/fwo/IDS60801/IDS60801.94682.axf

JavaScript Object Notation format (JSON) in row-major order
http://www.bom.gov.au/fwo/IDS60801/IDS60801.94682.json